Paoli, CO (80746)

12:04 AM MST on February 07, 2016 (GMT -0700)
Far Northeast Colorado | | Change Station
CLOSE
Current Station
Personal Weather Station
Location: Holyoke, CO
Elevation: 3835 ft
Nearby Weather Stations

Elev 3835 ft 40.71 °N, 102.38 °W | Updated 14 minutes ago

Clear
Clear
35.1 °F
Feels Like 28 °F
N
9.9
Wind Variable Wind from North

Today
High -- | Low -- °F
--% Chance of Precip.
Yesterday
High -- | Low -- °F
Precip. -- in
Pressure 30.12 in
Visibility 10.0 miles
Clouds Clear
Windchill 28 °F
Dew Point 25 °F
Humidity 67%
Rainfall in
Snow Depth Not available.
6:54 AM 5:15 PM
Waning Crescent, 2% visible
METAR KHEQ 070655Z AUTO 33017KT 10SM CLR 03/M02 A3012 RMK AO2
Pressure 30.12 in
Visibility 10.0 miles
Clouds Clear
Windchill 28 °F
Dew Point 25 °F
Humidity 67%
Rainfall in
Snow Depth Not available.
6:54 AM 5:15 PM
Waning Crescent, 2% visible
METAR KHEQ 070655Z AUTO 33017KT 10SM CLR 03/M02 A3012 RMK AO2

10-Day Weather Forecast

Almanac

Astronomy

Feb. 07, 2016 Rise Set
Actual Time
Civil Twilight
Nautical Twilight
Astronomical Twilight
Moon
Length of Visible Light
Length of Day
Tomorrow will be .
, % of the Moon is Illuminated

Today's Extremes

State Highs State Lows

Community

WunderPhotos

Upload Photos

1,891,174 photos uploaded!

WunderBlog® & News

Nearby

Air Quality

  Air Quality AQ Index Pollutant
Not available.

Snow Depth

Station Depth Elevation

Earthquake Activity

City Distance Mag. Time & Date
Minimum magnitude displayed is 2.5.

Coastal Water Temperatures

Place Temperature

Stations

Nearby Weather Stations

Station Location Temp. Windchill Dew Point Humidity Wind Precip. Elev Updated Type
                   

Watches & Warnings

There are currently no watches in effect.